sensor_id;sensor_type;location;lat;lon;timestamp;P1;durP1;ratioP1;P2;durP2;ratioP2
13032;SDS011;6583;42.632;23.298;2024-02-16T00:00:07;5.33;;;4.00;;
13032;SDS011;6583;42.632;23.298;2024-02-16T00:02:36;4.50;;;3.53;;
13032;SDS011;6583;42.632;23.298;2024-02-16T00:05:03;4.43;;;3.37;;
13032;SDS011;6583;42.632;23.298;2024-02-16T00:07:31;5.23;;;3.53;;
13032;SDS011;6583;42.632;23.298;2024-02-16T00:09:58;4.53;;;3.60;;
13032;SDS011;6583;42.632;23.298;2024-02-16T00:12:24;5.03;;;3.50;;
13032;SDS011;6583;42.632;23.298;2024-02-16T00:14:53;5.67;;;3.80;;
13032;SDS011;6583;42.632;23.298;2024-02-16T00:17:19;5.23;;;3.60;;
13032;SDS011;6583;42.632;23.298;2024-02-16T00:19:47;5.17;;;3.73;;
13032;SDS011;6583;42.632;23.298;2024-02-16T00:22:14;4.27;;;3.40;;
13032;SDS011;6583;42.632;23.298;2024-02-16T00:24:40;3.30;;;3.00;;
13032;SDS011;6583;42.632;23.298;2024-02-16T00:27:07;4.17;;;3.33;;
13032;SDS011;6583;42.632;23.298;2024-02-16T00:29:33;4.23;;;3.13;;
13032;SDS011;6583;42.632;23.298;2024-02-16T00:32:01;4.90;;;3.47;;
13032;SDS011;6583;42.632;23.298;2024-02-16T00:34:28;4.63;;;3.53;;
13032;SDS011;6583;42.632;23.298;2024-02-16T00:36:55;5.90;;;4.33;;
13032;SDS011;6583;42.632;23.298;2024-02-16T00:39:22;5.47;;;3.67;;
13032;SDS011;6583;42.632;23.298;2024-02-16T00:41:49;4.03;;;3.50;;
13032;SDS011;6583;42.632;23.298;2024-02-16T00:44:16;4.80;;;3.53;;
13032;SDS011;6583;42.632;23.298;2024-02-16T00:46:43;4.43;;;3.53;;
13032;SDS011;6583;42.632;23.298;2024-02-16T00:49:11;5.20;;;3.57;;
13032;SDS011;6583;42.632;23.298;2024-02-16T00:51:38;3.50;;;3.07;;
13032;SDS011;6583;42.632;23.298;2024-02-16T00:54:05;4.20;;;3.23;;
13032;SDS011;6583;42.632;23.298;2024-02-16T00:56:32;4.57;;;3.60;;
13032;SDS011;6583;42.632;23.298;2024-02-16T00:58:59;5.43;;;3.50;;
13032;SDS011;6583;42.632;23.298;2024-02-16T01:01:25;4.67;;;3.80;;
13032;SDS011;6583;42.632;23.298;2024-02-16T01:03:52;5.00;;;3.73;;
13032;SDS011;6583;42.632;23.298;2024-02-16T01:06:20;5.00;;;3.50;;
13032;SDS011;6583;42.632;23.298;2024-02-16T01:08:47;4.93;;;3.33;;
13032;SDS011;6583;42.632;23.298;2024-02-16T01:11:14;4.13;;;3.20;;
13032;SDS011;6583;42.632;23.298;2024-02-16T01:13:40;4.37;;;3.10;;
13032;SDS011;6583;42.632;23.298;2024-02-16T01:16:08;3.50;;;2.60;;
13032;SDS011;6583;42.632;23.298;2024-02-16T01:18:35;2.70;;;2.50;;
13032;SDS011;6583;42.632;23.298;2024-02-16T01:21:02;2.70;;;2.30;;
13032;SDS011;6583;42.632;23.298;2024-02-16T01:23:31;3.20;;;2.40;;
13032;SDS011;6583;42.632;23.298;2024-02-16T01:25:57;3.50;;;2.73;;
13032;SDS011;6583;42.632;23.298;2024-02-16T01:28:24;3.37;;;2.67;;
13032;SDS011;6583;42.632;23.298;2024-02-16T01:30:51;3.73;;;2.00;;
13032;SDS011;6583;42.632;23.298;2024-02-16T01:33:19;2.33;;;2.13;;
13032;SDS011;6583;42.632;23.298;2024-02-16T01:35:46;2.77;;;2.20;;
13032;SDS011;6583;42.632;23.298;2024-02-16T01:38:13;2.40;;;2.13;;
13032;SDS011;6583;42.632;23.298;2024-02-16T01:40:41;2.60;;;2.30;;
13032;SDS011;6583;42.632;23.298;2024-02-16T01:43:07;2.57;;;2.10;;
13032;SDS011;6583;42.632;23.298;2024-02-16T01:45:34;2.20;;;2.00;;
13032;SDS011;6583;42.632;23.298;2024-02-16T01:48:01;2.20;;;2.00;;
13032;SDS011;6583;42.632;23.298;2024-02-16T01:50:27;4.37;;;2.20;;
13032;SDS011;6583;42.632;23.298;2024-02-16T01:52:54;2.93;;;2.40;;
13032;SDS011;6583;42.632;23.298;2024-02-16T01:55:21;2.83;;;2.57;;
13032;SDS011;6583;42.632;23.298;2024-02-16T01:57:50;3.23;;;2.23;;
13032;SDS011;6583;42.632;23.298;2024-02-16T02:00:17;2.27;;;2.00;;
13032;SDS011;6583;42.632;23.298;2024-02-16T02:02:44;2.97;;;2.50;;
13032;SDS011;6583;42.632;23.298;2024-02-16T02:05:11;2.83;;;2.30;;
13032;SDS011;6583;42.632;23.298;2024-02-16T02:07:40;3.20;;;2.50;;
13032;SDS011;6583;42.632;23.298;2024-02-16T02:10:07;3.43;;;2.50;;
13032;SDS011;6583;42.632;23.298;2024-02-16T02:12:37;3.67;;;2.83;;
13032;SDS011;6583;42.632;23.298;2024-02-16T02:15:06;3.87;;;3.03;;
13032;SDS011;6583;42.632;23.298;2024-02-16T02:17:33;4.07;;;3.00;;
13032;SDS011;6583;42.632;23.298;2024-02-16T02:20:00;3.50;;;2.87;;
13032;SDS011;6583;42.632;23.298;2024-02-16T02:22:29;4.43;;;2.70;;
13032;SDS011;6583;42.632;23.298;2024-02-16T02:24:56;3.37;;;2.90;;
13032;SDS011;6583;42.632;23.298;2024-02-16T02:27:23;3.27;;;2.47;;
13032;SDS011;6583;42.632;23.298;2024-02-16T02:29:49;3.07;;;2.60;;
13032;SDS011;6583;42.632;23.298;2024-02-16T02:32:16;2.83;;;2.50;;
13032;SDS011;6583;42.632;23.298;2024-02-16T02:34:43;3.50;;;3.10;;
13032;SDS011;6583;42.632;23.298;2024-02-16T02:37:09;3.50;;;2.90;;
13032;SDS011;6583;42.632;23.298;2024-02-16T02:39:37;3.40;;;2.87;;
13032;SDS011;6583;42.632;23.298;2024-02-16T02:42:05;4.80;;;2.60;;
13032;SDS011;6583;42.632;23.298;2024-02-16T02:44:33;3.70;;;2.60;;
13032;SDS011;6583;42.632;23.298;2024-02-16T02:47:00;3.00;;;2.43;;
13032;SDS011;6583;42.632;23.298;2024-02-16T02:49:27;2.93;;;2.43;;
13032;SDS011;6583;42.632;23.298;2024-02-16T02:51:53;2.80;;;2.50;;
13032;SDS011;6583;42.632;23.298;2024-02-16T02:54:20;3.70;;;2.50;;
13032;SDS011;6583;42.632;23.298;2024-02-16T02:56:48;2.67;;;2.40;;
13032;SDS011;6583;42.632;23.298;2024-02-16T02:59:14;3.73;;;2.53;;
13032;SDS011;6583;42.632;23.298;2024-02-16T03:01:41;2.90;;;2.20;;
13032;SDS011;6583;42.632;23.298;2024-02-16T03:04:08;2.40;;;2.20;;
13032;SDS011;6583;42.632;23.298;2024-02-16T03:06:35;2.77;;;2.20;;
13032;SDS011;6583;42.632;23.298;2024-02-16T03:09:01;2.80;;;2.47;;
13032;SDS011;6583;42.632;23.298;2024-02-16T03:11:28;3.20;;;2.20;;
13032;SDS011;6583;42.632;23.298;2024-02-16T03:13:56;3.00;;;2.17;;
13032;SDS011;6583;42.632;23.298;2024-02-16T03:16:23;3.30;;;2.40;;
13032;SDS011;6583;42.632;23.298;2024-02-16T03:18:49;2.93;;;2.40;;
13032;SDS011;6583;42.632;23.298;2024-02-16T03:21:16;3.20;;;2.20;;
13032;SDS011;6583;42.632;23.298;2024-02-16T03:23:43;2.37;;;2.10;;
13032;SDS011;6583;42.632;23.298;2024-02-16T03:26:16;3.60;;;2.30;;
13032;SDS011;6583;42.632;23.298;2024-02-16T03:28:43;2.73;;;2.00;;
13032;SDS011;6583;42.632;23.298;2024-02-16T03:31:23;2.40;;;2.03;;
13032;SDS011;6583;42.632;23.298;2024-02-16T03:33:50;2.40;;;2.10;;
13032;SDS011;6583;42.632;23.298;2024-02-16T03:36:18;2.43;;;2.20;;
13032;SDS011;6583;42.632;23.298;2024-02-16T03:38:45;2.40;;;2.20;;
13032;SDS011;6583;42.632;23.298;2024-02-16T03:41:15;2.70;;;2.30;;
13032;SDS011;6583;42.632;23.298;2024-02-16T03:43:44;2.73;;;2.23;;
13032;SDS011;6583;42.632;23.298;2024-02-16T03:46:11;3.77;;;2.67;;
13032;SDS011;6583;42.632;23.298;2024-02-16T03:48:39;2.77;;;2.50;;
13032;SDS011;6583;42.632;23.298;2024-02-16T03:51:06;2.83;;;2.50;;
13032;SDS011;6583;42.632;23.298;2024-02-16T03:53:33;3.20;;;2.63;;
13032;SDS011;6583;42.632;23.298;2024-02-16T03:56:00;2.90;;;2.60;;
13032;SDS011;6583;42.632;23.298;2024-02-16T03:58:26;2.43;;;2.03;;
13032;SDS011;6583;42.632;23.298;2024-02-16T04:00:53;2.70;;;2.10;;
13032;SDS011;6583;42.632;23.298;2024-02-16T04:03:20;3.53;;;2.50;;
13032;SDS011;6583;42.632;23.298;2024-02-16T04:05:48;2.60;;;2.27;;
13032;SDS011;6583;42.632;23.298;2024-02-16T04:08:15;2.60;;;2.23;;
13032;SDS011;6583;42.632;23.298;2024-02-16T04:10:41;3.03;;;2.40;;
13032;SDS011;6583;42.632;23.298;2024-02-16T04:13:08;2.90;;;2.60;;
13032;SDS011;6583;42.632;23.298;2024-02-16T04:15:35;2.53;;;2.33;;
13032;SDS011;6583;42.632;23.298;2024-02-16T04:18:01;3.00;;;2.47;;
13032;SDS011;6583;42.632;23.298;2024-02-16T04:20:28;2.73;;;2.50;;
13032;SDS011;6583;42.632;23.298;2024-02-16T04:22:56;2.57;;;2.33;;
13032;SDS011;6583;42.632;23.298;2024-02-16T04:25:22;2.60;;;2.40;;
13032;SDS011;6583;42.632;23.298;2024-02-16T04:27:49;3.37;;;2.63;;
13032;SDS011;6583;42.632;23.298;2024-02-16T04:30:16;2.90;;;2.47;;
13032;SDS011;6583;42.632;23.298;2024-02-16T04:32:43;4.40;;;2.77;;
13032;SDS011;6583;42.632;23.298;2024-02-16T04:35:10;3.50;;;2.63;;
13032;SDS011;6583;42.632;23.298;2024-02-16T04:37:37;2.83;;;2.53;;
13032;SDS011;6583;42.632;23.298;2024-02-16T04:40:06;2.50;;;2.30;;
13032;SDS011;6583;42.632;23.298;2024-02-16T04:42:37;2.80;;;2.60;;
13032;SDS011;6583;42.632;23.298;2024-02-16T04:45:04;2.87;;;2.40;;
13032;SDS011;6583;42.632;23.298;2024-02-16T04:47:32;2.50;;;2.30;;
13032;SDS011;6583;42.632;23.298;2024-02-16T04:49:58;3.07;;;2.40;;
13032;SDS011;6583;42.632;23.298;2024-02-16T04:52:25;2.53;;;2.33;;
13032;SDS011;6583;42.632;23.298;2024-02-16T04:54:51;3.00;;;2.43;;
13032;SDS011;6583;42.632;23.298;2024-02-16T04:57:19;2.80;;;2.43;;
13032;SDS011;6583;42.632;23.298;2024-02-16T04:59:46;3.00;;;2.63;;
13032;SDS011;6583;42.632;23.298;2024-02-16T05:02:13;2.73;;;2.50;;
13032;SDS011;6583;42.632;23.298;2024-02-16T05:04:40;2.57;;;2.37;;
13032;SDS011;6583;42.632;23.298;2024-02-16T05:07:06;2.40;;;2.20;;
13032;SDS011;6583;42.632;23.298;2024-02-16T05:09:33;2.50;;;2.30;;
13032;SDS011;6583;42.632;23.298;2024-02-16T05:12:00;2.80;;;2.60;;
13032;SDS011;6583;42.632;23.298;2024-02-16T05:14:28;2.40;;;2.20;;
13032;SDS011;6583;42.632;23.298;2024-02-16T05:16:55;2.67;;;2.07;;
13032;SDS011;6583;42.632;23.298;2024-02-16T05:19:22;3.47;;;2.70;;
13032;SDS011;6583;42.632;23.298;2024-02-16T05:21:48;2.70;;;2.20;;
13032;SDS011;6583;42.632;23.298;2024-02-16T05:24:15;2.37;;;2.17;;
13032;SDS011;6583;42.632;23.298;2024-02-16T05:26:42;2.70;;;2.50;;
13032;SDS011;6583;42.632;23.298;2024-02-16T05:29:10;2.53;;;2.33;;
13032;SDS011;6583;42.632;23.298;2024-02-16T05:31:38;3.50;;;2.40;;
13032;SDS011;6583;42.632;23.298;2024-02-16T05:34:05;2.60;;;2.40;;
13032;SDS011;6583;42.632;23.298;2024-02-16T05:36:31;2.50;;;2.30;;
13032;SDS011;6583;42.632;23.298;2024-02-16T05:39:01;3.20;;;2.53;;
13032;SDS011;6583;42.632;23.298;2024-02-16T05:41:44;2.50;;;2.30;;
13032;SDS011;6583;42.632;23.298;2024-02-16T05:44:11;4.53;;;2.40;;
13032;SDS011;6583;42.632;23.298;2024-02-16T05:46:40;3.33;;;2.90;;
13032;SDS011;6583;42.632;23.298;2024-02-16T05:49:06;5.67;;;2.90;;
13032;SDS011;6583;42.632;23.298;2024-02-16T05:51:35;3.30;;;2.80;;
13032;SDS011;6583;42.632;23.298;2024-02-16T05:54:02;2.60;;;2.40;;
13032;SDS011;6583;42.632;23.298;2024-02-16T05:56:28;2.50;;;2.30;;
13032;SDS011;6583;42.632;23.298;2024-02-16T05:58:58;3.03;;;2.50;;
13032;SDS011;6583;42.632;23.298;2024-02-16T06:01:25;3.17;;;2.40;;
13032;SDS011;6583;42.632;23.298;2024-02-16T06:03:54;2.63;;;2.43;;
13032;SDS011;6583;42.632;23.298;2024-02-16T06:06:20;3.83;;;3.30;;
13032;SDS011;6583;42.632;23.298;2024-02-16T06:08:47;4.73;;;3.60;;
13032;SDS011;6583;42.632;23.298;2024-02-16T06:11:14;6.30;;;4.40;;
13032;SDS011;6583;42.632;23.298;2024-02-16T06:13:41;3.17;;;2.87;;
13032;SDS011;6583;42.632;23.298;2024-02-16T06:16:08;6.50;;;4.37;;
13032;SDS011;6583;42.632;23.298;2024-02-16T06:18:35;4.40;;;3.57;;
13032;SDS011;6583;42.632;23.298;2024-02-16T06:21:04;5.63;;;3.90;;
13032;SDS011;6583;42.632;23.298;2024-02-16T06:23:31;5.30;;;4.20;;
13032;SDS011;6583;42.632;23.298;2024-02-16T06:25:57;3.97;;;3.50;;
13032;SDS011;6583;42.632;23.298;2024-02-16T06:28:24;4.67;;;3.53;;
13032;SDS011;6583;42.632;23.298;2024-02-16T06:30:50;4.77;;;3.97;;
13032;SDS011;6583;42.632;23.298;2024-02-16T06:33:17;4.10;;;3.40;;
13032;SDS011;6583;42.632;23.298;2024-02-16T06:35:44;5.87;;;4.43;;
13032;SDS011;6583;42.632;23.298;2024-02-16T06:38:14;6.80;;;4.93;;
13032;SDS011;6583;42.632;23.298;2024-02-16T06:40:41;6.20;;;4.83;;
13032;SDS011;6583;42.632;23.298;2024-02-16T06:43:07;6.80;;;5.53;;
13032;SDS011;6583;42.632;23.298;2024-02-16T06:45:34;7.53;;;6.10;;
13032;SDS011;6583;42.632;23.298;2024-02-16T06:48:01;7.47;;;6.10;;
13032;SDS011;6583;42.632;23.298;2024-02-16T06:50:28;7.27;;;6.03;;
13032;SDS011;6583;42.632;23.298;2024-02-16T06:52:55;6.83;;;5.67;;
13032;SDS011;6583;42.632;23.298;2024-02-16T06:55:23;5.60;;;4.90;;
13032;SDS011;6583;42.632;23.298;2024-02-16T06:57:49;7.23;;;5.20;;
13032;SDS011;6583;42.632;23.298;2024-02-16T07:00:16;6.53;;;5.13;;
13032;SDS011;6583;42.632;23.298;2024-02-16T07:02:45;7.33;;;6.20;;
13032;SDS011;6583;42.632;23.298;2024-02-16T07:05:12;9.70;;;6.17;;
13032;SDS011;6583;42.632;23.298;2024-02-16T07:07:39;12.50;;;7.73;;
13032;SDS011;6583;42.632;23.298;2024-02-16T07:10:06;10.50;;;7.47;;
13032;SDS011;6583;42.632;23.298;2024-02-16T07:12:39;12.00;;;8.43;;
13032;SDS011;6583;42.632;23.298;2024-02-16T07:15:07;12.17;;;8.57;;
13032;SDS011;6583;42.632;23.298;2024-02-16T07:17:34;12.33;;;8.20;;
13032;SDS011;6583;42.632;23.298;2024-02-16T07:20:02;11.53;;;8.60;;
13032;SDS011;6583;42.632;23.298;2024-02-16T07:22:29;11.90;;;8.20;;
13032;SDS011;6583;42.632;23.298;2024-02-16T07:24:56;10.73;;;8.20;;
13032;SDS011;6583;42.632;23.298;2024-02-16T07:27:25;10.03;;;7.77;;
13032;SDS011;6583;42.632;23.298;2024-02-16T07:29:53;10.30;;;7.03;;
13032;SDS011;6583;42.632;23.298;2024-02-16T07:32:20;8.67;;;6.20;;
13032;SDS011;6583;42.632;23.298;2024-02-16T07:34:47;12.63;;;6.77;;
13032;SDS011;6583;42.632;23.298;2024-02-16T07:37:14;11.47;;;6.77;;
13032;SDS011;6583;42.632;23.298;2024-02-16T07:39:41;8.33;;;6.53;;
13032;SDS011;6583;42.632;23.298;2024-02-16T07:42:07;8.20;;;6.00;;
13032;SDS011;6583;42.632;23.298;2024-02-16T07:44:35;6.60;;;5.27;;
13032;SDS011;6583;42.632;23.298;2024-02-16T07:47:03;6.47;;;4.90;;
13032;SDS011;6583;42.632;23.298;2024-02-16T07:49:30;6.27;;;5.50;;
13032;SDS011;6583;42.632;23.298;2024-02-16T07:51:57;9.40;;;5.53;;
13032;SDS011;6583;42.632;23.298;2024-02-16T07:54:23;7.57;;;5.97;;
13032;SDS011;6583;42.632;23.298;2024-02-16T07:56:50;7.50;;;6.00;;
13032;SDS011;6583;42.632;23.298;2024-02-16T07:59:17;11.53;;;6.53;;
13032;SDS011;6583;42.632;23.298;2024-02-16T08:01:44;7.67;;;6.40;;
13032;SDS011;6583;42.632;23.298;2024-02-16T08:04:12;7.77;;;5.60;;
13032;SDS011;6583;42.632;23.298;2024-02-16T08:06:38;7.40;;;5.80;;
13032;SDS011;6583;42.632;23.298;2024-02-16T08:09:05;7.87;;;6.33;;
13032;SDS011;6583;42.632;23.298;2024-02-16T08:11:32;9.80;;;6.50;;
13032;SDS011;6583;42.632;23.298;2024-02-16T08:13:59;8.63;;;6.60;;
13032;SDS011;6583;42.632;23.298;2024-02-16T08:16:26;8.60;;;6.33;;
13032;SDS011;6583;42.632;23.298;2024-02-16T08:18:52;10.10;;;6.77;;
13032;SDS011;6583;42.632;23.298;2024-02-16T08:21:21;8.73;;;6.90;;
13032;SDS011;6583;42.632;23.298;2024-02-16T08:23:47;8.77;;;6.80;;
13032;SDS011;6583;42.632;23.298;2024-02-16T08:26:14;9.77;;;7.17;;
13032;SDS011;6583;42.632;23.298;2024-02-16T08:28:43;9.17;;;6.53;;
13032;SDS011;6583;42.632;23.298;2024-02-16T08:31:14;9.97;;;6.87;;
13032;SDS011;6583;42.632;23.298;2024-02-16T08:33:42;9.90;;;7.03;;
13032;SDS011;6583;42.632;23.298;2024-02-16T08:36:10;11.07;;;7.60;;
13032;SDS011;6583;42.632;23.298;2024-02-16T08:38:38;10.83;;;7.97;;
13032;SDS011;6583;42.632;23.298;2024-02-16T08:41:05;10.93;;;7.73;;
13032;SDS011;6583;42.632;23.298;2024-02-16T08:43:32;11.73;;;7.73;;
13032;SDS011;6583;42.632;23.298;2024-02-16T08:45:58;9.77;;;6.90;;
13032;SDS011;6583;42.632;23.298;2024-02-16T08:48:25;10.83;;;7.27;;
13032;SDS011;6583;42.632;23.298;2024-02-16T08:50:52;10.63;;;7.10;;
13032;SDS011;6583;42.632;23.298;2024-02-16T08:53:18;10.23;;;7.40;;
13032;SDS011;6583;42.632;23.298;2024-02-16T08:55:46;8.60;;;6.63;;
13032;SDS011;6583;42.632;23.298;2024-02-16T08:58:13;12.63;;;7.20;;
13032;SDS011;6583;42.632;23.298;2024-02-16T09:00:39;8.10;;;6.47;;
13032;SDS011;6583;42.632;23.298;2024-02-16T09:03:06;9.37;;;6.97;;
13032;SDS011;6583;42.632;23.298;2024-02-16T09:05:33;10.93;;;7.17;;
13032;SDS011;6583;42.632;23.298;2024-02-16T09:08:00;9.80;;;6.90;;
13032;SDS011;6583;42.632;23.298;2024-02-16T09:10:28;10.03;;;6.90;;
13032;SDS011;6583;42.632;23.298;2024-02-16T09:12:57;9.23;;;7.23;;
13032;SDS011;6583;42.632;23.298;2024-02-16T09:15:24;9.43;;;6.43;;
13032;SDS011;6583;42.632;23.298;2024-02-16T09:17:51;11.53;;;7.77;;
13032;SDS011;6583;42.632;23.298;2024-02-16T09:20:18;9.93;;;7.87;;
13032;SDS011;6583;42.632;23.298;2024-02-16T09:22:47;8.07;;;5.97;;
13032;SDS011;6583;42.632;23.298;2024-02-16T09:25:14;9.00;;;6.67;;
13032;SDS011;6583;42.632;23.298;2024-02-16T09:27:41;13.47;;;8.30;;
13032;SDS011;6583;42.632;23.298;2024-02-16T09:30:12;8.80;;;7.23;;
13032;SDS011;6583;42.632;23.298;2024-02-16T09:32:39;5.10;;;4.60;;
13032;SDS011;6583;42.632;23.298;2024-02-16T09:35:06;6.80;;;5.30;;
13032;SDS011;6583;42.632;23.298;2024-02-16T09:37:33;10.17;;;5.90;;
13032;SDS011;6583;42.632;23.298;2024-02-16T09:40:00;8.97;;;5.50;;
13032;SDS011;6583;42.632;23.298;2024-02-16T09:42:29;8.40;;;6.20;;
13032;SDS011;6583;42.632;23.298;2024-02-16T09:44:55;9.77;;;7.17;;
13032;SDS011;6583;42.632;23.298;2024-02-16T09:47:23;7.70;;;6.00;;
13032;SDS011;6583;42.632;23.298;2024-02-16T09:49:55;7.17;;;6.00;;
13032;SDS011;6583;42.632;23.298;2024-02-16T09:52:21;8.67;;;6.77;;
13032;SDS011;6583;42.632;23.298;2024-02-16T09:54:49;10.33;;;7.10;;
13032;SDS011;6583;42.632;23.298;2024-02-16T09:57:16;7.37;;;6.40;;
13032;SDS011;6583;42.632;23.298;2024-02-16T09:59:43;8.87;;;7.67;;
13032;SDS011;6583;42.632;23.298;2024-02-16T10:02:10;8.80;;;7.33;;
13032;SDS011;6583;42.632;23.298;2024-02-16T10:04:38;10.27;;;8.10;;
13032;SDS011;6583;42.632;23.298;2024-02-16T10:07:05;11.67;;;8.77;;
13032;SDS011;6583;42.632;23.298;2024-02-16T10:09:32;13.53;;;8.53;;
13032;SDS011;6583;42.632;23.298;2024-02-16T10:11:58;11.37;;;7.80;;
13032;SDS011;6583;42.632;23.298;2024-02-16T10:14:25;9.53;;;7.73;;
13032;SDS011;6583;42.632;23.298;2024-02-16T10:16:59;9.73;;;7.47;;
13032;SDS011;6583;42.632;23.298;2024-02-16T10:19:25;8.77;;;7.87;;
13032;SDS011;6583;42.632;23.298;2024-02-16T10:21:53;9.63;;;8.13;;
13032;SDS011;6583;42.632;23.298;2024-02-16T10:24:21;10.63;;;8.23;;
13032;SDS011;6583;42.632;23.298;2024-02-16T10:26:48;11.63;;;8.60;;
13032;SDS011;6583;42.632;23.298;2024-02-16T10:29:17;9.77;;;8.10;;
13032;SDS011;6583;42.632;23.298;2024-02-16T10:31:45;11.10;;;8.23;;
13032;SDS011;6583;42.632;23.298;2024-02-16T10:34:12;13.20;;;7.60;;
13032;SDS011;6583;42.632;23.298;2024-02-16T10:36:39;9.87;;;6.87;;
13032;SDS011;6583;42.632;23.298;2024-02-16T10:39:08;9.70;;;7.67;;
13032;SDS011;6583;42.632;23.298;2024-02-16T10:41:37;9.83;;;7.60;;
13032;SDS011;6583;42.632;23.298;2024-02-16T10:44:06;9.30;;;7.90;;
13032;SDS011;6583;42.632;23.298;2024-02-16T10:46:33;9.83;;;7.90;;
13032;SDS011;6583;42.632;23.298;2024-02-16T10:49:00;7.87;;;6.80;;
13032;SDS011;6583;42.632;23.298;2024-02-16T10:51:31;8.00;;;7.13;;
13032;SDS011;6583;42.632;23.298;2024-02-16T10:54:01;11.83;;;7.60;;
13032;SDS011;6583;42.632;23.298;2024-02-16T10:56:34;9.00;;;7.90;;
13032;SDS011;6583;42.632;23.298;2024-02-16T10:59:02;8.17;;;7.27;;
13032;SDS011;6583;42.632;23.298;2024-02-16T11:01:33;9.93;;;7.83;;
13032;SDS011;6583;42.632;23.298;2024-02-16T11:04:04;9.93;;;8.53;;
13032;SDS011;6583;42.632;23.298;2024-02-16T11:06:44;10.53;;;8.43;;
13032;SDS011;6583;42.632;23.298;2024-02-16T11:09:11;9.80;;;8.27;;
13032;SDS011;6583;42.632;23.298;2024-02-16T11:11:53;10.93;;;8.80;;
13032;SDS011;6583;42.632;23.298;2024-02-16T11:14:21;10.63;;;8.43;;
13032;SDS011;6583;42.632;23.298;2024-02-16T11:16:48;10.40;;;8.73;;
13032;SDS011;6583;42.632;23.298;2024-02-16T11:19:16;10.97;;;8.33;;
13032;SDS011;6583;42.632;23.298;2024-02-16T11:21:54;10.53;;;7.80;;
13032;SDS011;6583;42.632;23.298;2024-02-16T11:24:27;9.73;;;7.63;;
13032;SDS011;6583;42.632;23.298;2024-02-16T11:26:57;9.37;;;6.90;;
13032;SDS011;6583;42.632;23.298;2024-02-16T11:29:24;8.13;;;6.20;;
13032;SDS011;6583;42.632;23.298;2024-02-16T11:31:52;8.63;;;6.60;;
13032;SDS011;6583;42.632;23.298;2024-02-16T11:34:22;7.83;;;6.20;;
13032;SDS011;6583;42.632;23.298;2024-02-16T11:36:51;7.87;;;6.33;;
13032;SDS011;6583;42.632;23.298;2024-02-16T11:39:19;8.00;;;5.70;;
13032;SDS011;6583;42.632;23.298;2024-02-16T11:41:46;11.13;;;7.03;;
13032;SDS011;6583;42.632;23.298;2024-02-16T11:44:14;9.90;;;7.07;;
13032;SDS011;6583;42.632;23.298;2024-02-16T11:46:42;7.80;;;6.20;;
13032;SDS011;6583;42.632;23.298;2024-02-16T11:49:09;6.90;;;5.73;;
13032;SDS011;6583;42.632;23.298;2024-02-16T11:51:36;8.23;;;6.13;;
13032;SDS011;6583;42.632;23.298;2024-02-16T11:54:04;7.93;;;6.57;;
13032;SDS011;6583;42.632;23.298;2024-02-16T11:56:32;6.93;;;6.23;;
13032;SDS011;6583;42.632;23.298;2024-02-16T11:58:59;8.30;;;6.20;;
13032;SDS011;6583;42.632;23.298;2024-02-16T12:01:27;9.40;;;6.00;;
13032;SDS011;6583;42.632;23.298;2024-02-16T12:03:54;7.67;;;6.00;;
13032;SDS011;6583;42.632;23.298;2024-02-16T12:06:22;9.77;;;5.80;;
13032;SDS011;6583;42.632;23.298;2024-02-16T12:08:49;7.50;;;6.03;;
13032;SDS011;6583;42.632;23.298;2024-02-16T12:11:17;8.40;;;6.63;;
13032;SDS011;6583;42.632;23.298;2024-02-16T12:13:44;8.90;;;6.93;;
13032;SDS011;6583;42.632;23.298;2024-02-16T12:16:11;8.17;;;7.20;;
13032;SDS011;6583;42.632;23.298;2024-02-16T12:18:39;9.33;;;7.00;;
13032;SDS011;6583;42.632;23.298;2024-02-16T12:21:06;8.50;;;7.23;;
13032;SDS011;6583;42.632;23.298;2024-02-16T12:23:35;10.17;;;7.53;;
13032;SDS011;6583;42.632;23.298;2024-02-16T12:26:02;9.33;;;7.30;;
13032;SDS011;6583;42.632;23.298;2024-02-16T12:28:30;8.37;;;6.67;;
13032;SDS011;6583;42.632;23.298;2024-02-16T12:30:58;11.00;;;7.50;;
13032;SDS011;6583;42.632;23.298;2024-02-16T12:33:25;9.77;;;7.23;;
13032;SDS011;6583;42.632;23.298;2024-02-16T12:35:53;8.23;;;6.70;;
13032;SDS011;6583;42.632;23.298;2024-02-16T12:38:20;16.63;;;8.80;;
13032;SDS011;6583;42.632;23.298;2024-02-16T12:40:47;8.03;;;6.60;;
13032;SDS011;6583;42.632;23.298;2024-02-16T12:43:14;9.40;;;6.40;;
13032;SDS011;6583;42.632;23.298;2024-02-16T12:45:41;8.00;;;6.20;;
13032;SDS011;6583;42.632;23.298;2024-02-16T12:48:07;9.23;;;6.40;;
13032;SDS011;6583;42.632;23.298;2024-02-16T12:50:34;10.30;;;6.87;;
13032;SDS011;6583;42.632;23.298;2024-02-16T12:53:04;7.57;;;6.33;;
13032;SDS011;6583;42.632;23.298;2024-02-16T12:55:30;8.87;;;6.23;;
13032;SDS011;6583;42.632;23.298;2024-02-16T12:57:57;7.33;;;5.97;;
13032;SDS011;6583;42.632;23.298;2024-02-16T13:00:24;8.30;;;6.33;;
13032;SDS011;6583;42.632;23.298;2024-02-16T13:02:51;8.23;;;6.87;;
13032;SDS011;6583;42.632;23.298;2024-02-16T13:05:17;8.33;;;6.47;;
13032;SDS011;6583;42.632;23.298;2024-02-16T13:07:44;6.77;;;6.07;;
13032;SDS011;6583;42.632;23.298;2024-02-16T13:10:12;8.47;;;6.20;;
13032;SDS011;6583;42.632;23.298;2024-02-16T13:12:39;7.57;;;6.20;;
13032;SDS011;6583;42.632;23.298;2024-02-16T13:15:08;8.77;;;6.70;;
13032;SDS011;6583;42.632;23.298;2024-02-16T13:17:34;10.70;;;6.60;;
13032;SDS011;6583;42.632;23.298;2024-02-16T13:20:01;9.33;;;7.00;;
13032;SDS011;6583;42.632;23.298;2024-02-16T13:22:34;8.23;;;6.43;;
13032;SDS011;6583;42.632;23.298;2024-02-16T13:25:01;8.33;;;6.53;;
13032;SDS011;6583;42.632;23.298;2024-02-16T13:27:30;9.03;;;6.50;;
13032;SDS011;6583;42.632;23.298;2024-02-16T13:29:56;8.57;;;6.67;;
13032;SDS011;6583;42.632;23.298;2024-02-16T13:32:23;9.03;;;6.97;;
13032;SDS011;6583;42.632;23.298;2024-02-16T13:34:50;9.53;;;6.83;;
13032;SDS011;6583;42.632;23.298;2024-02-16T13:37:17;9.47;;;6.87;;
13032;SDS011;6583;42.632;23.298;2024-02-16T13:39:43;7.47;;;6.60;;
13032;SDS011;6583;42.632;23.298;2024-02-16T13:42:10;8.10;;;6.57;;
13032;SDS011;6583;42.632;23.298;2024-02-16T13:44:39;9.13;;;7.27;;
13032;SDS011;6583;42.632;23.298;2024-02-16T13:47:06;8.50;;;6.77;;
13032;SDS011;6583;42.632;23.298;2024-02-16T13:49:32;9.03;;;6.47;;
13032;SDS011;6583;42.632;23.298;2024-02-16T13:51:59;9.00;;;6.93;;
13032;SDS011;6583;42.632;23.298;2024-02-16T13:54:26;10.67;;;6.67;;
13032;SDS011;6583;42.632;23.298;2024-02-16T13:56:53;7.20;;;5.80;;
13032;SDS011;6583;42.632;23.298;2024-02-16T13:59:19;8.67;;;6.07;;
13032;SDS011;6583;42.632;23.298;2024-02-16T14:01:48;8.33;;;5.90;;
13032;SDS011;6583;42.632;23.298;2024-02-16T14:04:15;8.13;;;6.03;;
13032;SDS011;6583;42.632;23.298;2024-02-16T14:06:42;6.87;;;5.37;;
13032;SDS011;6583;42.632;23.298;2024-02-16T14:09:08;7.33;;;5.53;;
13032;SDS011;6583;42.632;23.298;2024-02-16T14:11:39;9.20;;;5.57;;
13032;SDS011;6583;42.632;23.298;2024-02-16T14:14:07;6.87;;;5.40;;
13032;SDS011;6583;42.632;23.298;2024-02-16T14:16:33;8.00;;;5.67;;
13032;SDS011;6583;42.632;23.298;2024-02-16T14:19:01;8.40;;;5.60;;
13032;SDS011;6583;42.632;23.298;2024-02-16T14:21:28;6.40;;;5.30;;
13032;SDS011;6583;42.632;23.298;2024-02-16T14:23:55;7.13;;;5.50;;
13032;SDS011;6583;42.632;23.298;2024-02-16T14:26:21;7.87;;;5.37;;
13032;SDS011;6583;42.632;23.298;2024-02-16T14:28:49;8.70;;;5.70;;
13032;SDS011;6583;42.632;23.298;2024-02-16T14:31:15;6.20;;;5.27;;
13032;SDS011;6583;42.632;23.298;2024-02-16T14:33:45;6.57;;;5.50;;
13032;SDS011;6583;42.632;23.298;2024-02-16T14:36:13;11.20;;;5.90;;
13032;SDS011;6583;42.632;23.298;2024-02-16T14:38:40;6.50;;;5.90;;
13032;SDS011;6583;42.632;23.298;2024-02-16T14:41:06;7.30;;;5.23;;
13032;SDS011;6583;42.632;23.298;2024-02-16T14:43:33;6.70;;;5.20;;
13032;SDS011;6583;42.632;23.298;2024-02-16T14:46:00;7.50;;;5.60;;